createdAt,value
2023-03-16T00:05:33.198Z,69
2023-03-16T00:35:39.044Z,69
2023-03-16T00:45:40.921Z,69
2023-03-16T00:55:43.354Z,70
2023-03-16T01:05:45.762Z,70
2023-03-16T01:15:47.937Z,71
2023-03-16T01:25:50.131Z,71
2023-03-16T01:35:52.230Z,71
2023-03-16T01:45:54.478Z,72
2023-03-16T01:55:56.325Z,71
2023-03-16T02:05:58.798Z,70
2023-03-16T02:26:02.194Z,69
2023-03-16T02:46:06.632Z,68
2023-03-16T02:56:08.265Z,68
2023-03-16T03:26:15.102Z,67
2023-03-16T03:26:37.016Z,67
2023-03-16T03:36:23.932Z,66
2023-03-16T03:46:26.356Z,65
2023-03-16T03:56:28.112Z,65
2023-03-16T04:06:29.802Z,65
2023-03-16T04:16:32.499Z,66
2023-03-16T04:26:34.480Z,66
2023-03-16T04:56:40.519Z,67
2023-03-16T05:26:46.573Z,67
2023-03-16T05:36:48.239Z,67
2023-03-16T05:46:50.417Z,67
2023-03-16T05:56:52.775Z,67
2023-03-16T06:06:54.734Z,68
2023-03-16T06:16:57.034Z,68
2023-03-16T06:26:59.470Z,67
2023-03-16T06:37:01.419Z,66
2023-03-16T06:47:04.033Z,66
2023-03-16T06:57:06.470Z,65
2023-03-16T07:17:10.405Z,64
2023-03-16T07:27:12.670Z,63
2023-03-16T07:47:16.905Z,61
2023-03-16T08:07:21.455Z,60
2023-03-16T08:27:26.333Z,58
2023-03-16T08:37:28.531Z,56
2023-03-16T08:47:30.529Z,55
2023-03-16T08:57:32.459Z,55
2023-03-16T09:07:35.056Z,55
2023-03-16T09:17:37.542Z,55
2023-03-16T09:27:39.841Z,55
2023-03-16T09:37:45.197Z,55
2023-03-16T09:47:43.501Z,55
2023-03-16T10:07:47.204Z,54
2023-03-16T10:17:49.576Z,54
2023-03-16T10:27:52.158Z,54
2023-03-16T10:37:54.314Z,53
2023-03-16T10:47:55.948Z,53
2023-03-16T11:07:59.863Z,54
2023-03-16T11:18:02.147Z,54
2023-03-16T11:28:04.040Z,54
2023-03-16T11:38:06.635Z,54
2023-03-16T11:48:08.495Z,54
2023-03-16T11:58:10.657Z,53
2023-03-16T12:08:12.391Z,52
2023-03-16T12:18:14.078Z,51
2023-03-16T12:28:15.922Z,49
2023-03-16T12:38:17.724Z,47
2023-03-16T12:48:20.105Z,47
2023-03-16T12:58:22.265Z,47
2023-03-16T13:08:24.225Z,47
2023-03-16T13:18:26.684Z,48
2023-03-16T13:28:28.642Z,48
2023-03-16T13:38:31.261Z,47
2023-03-16T13:48:33.148Z,46
2023-03-16T13:58:35.865Z,46
2023-03-16T14:08:37.792Z,45
2023-03-16T14:18:40.139Z,45
2023-03-16T14:28:42.254Z,44
2023-03-16T14:38:44.265Z,45
2023-03-16T14:48:46.548Z,44
2023-03-16T14:58:49.106Z,45
2023-03-16T15:08:51.303Z,45
2023-03-16T15:18:53.462Z,46
2023-03-16T15:28:55.307Z,46
2023-03-16T15:38:57.248Z,46
2023-03-16T15:48:58.967Z,46
2023-03-16T15:59:00.862Z,47
2023-03-16T16:09:03.366Z,47
2023-03-16T16:19:05.779Z,48
2023-03-16T16:29:07.779Z,48
2023-03-16T16:39:10.022Z,49
2023-03-16T16:49:12.665Z,50
2023-03-16T16:59:15.148Z,50
2023-03-16T17:09:17.759Z,49
2023-03-16T17:19:20.174Z,50
2023-03-16T17:29:22.097Z,51
2023-03-16T17:39:24.537Z,51
2023-03-16T17:49:26.609Z,52
2023-03-16T17:59:29.017Z,53
2023-03-16T18:09:30.831Z,53
2023-03-16T18:19:33.226Z,53
2023-03-16T18:29:35.321Z,54
2023-03-16T18:39:37.720Z,54
2023-03-16T18:49:39.654Z,54
2023-03-16T18:59:41.999Z,54
2023-03-16T19:09:43.691Z,54
2023-03-16T19:19:46.257Z,55
2023-03-16T19:29:49.385Z,55
2023-03-16T19:39:49.951Z,55
2023-03-16T19:49:52.560Z,56
2023-03-16T19:59:54.928Z,56
2023-03-16T20:09:56.702Z,56
2023-03-16T20:19:59.136Z,57
2023-03-16T20:30:01.180Z,57
2023-03-16T20:40:03.125Z,58
2023-03-16T20:50:04.948Z,58
2023-03-16T21:00:07.567Z,58
2023-03-16T21:20:12.589Z,57
2023-03-16T21:40:17.201Z,57
2023-03-16T22:00:21.453Z,57
2023-03-16T22:40:29.696Z,57
2023-03-16T22:50:31.877Z,57
2023-03-16T23:50:44.400Z,57
